sensor_id;sensor_type;location;lat;lon;timestamp;P1;durP1;ratioP1;P2;durP2;ratioP2
16642;SDS011;8435;52.184;5.406;2022-08-21T00:05:58;3.43;;;2.93;;
16642;SDS011;8435;52.184;5.406;2022-08-21T00:08:58;5.47;;;2.97;;
16642;SDS011;8435;52.184;5.406;2022-08-21T00:11:49;3.37;;;3.00;;
16642;SDS011;8435;52.184;5.406;2022-08-21T00:18:13;3.30;;;2.73;;
16642;SDS011;8435;52.184;5.406;2022-08-21T00:28:23;4.10;;;2.90;;
16642;SDS011;8435;52.184;5.406;2022-08-21T00:34:17;4.63;;;3.00;;
16642;SDS011;8435;52.184;5.406;2022-08-21T00:37:01;4.23;;;2.50;;
16642;SDS011;8435;52.184;5.406;2022-08-21T00:39:36;9.53;;;8.17;;
16642;SDS011;8435;52.184;5.406;2022-08-21T00:42:07;10.43;;;8.07;;
16642;SDS011;8435;52.184;5.406;2022-08-21T00:44:40;8.27;;;6.00;;
16642;SDS011;8435;52.184;5.406;2022-08-21T00:47:08;7.63;;;6.77;;
16642;SDS011;8435;52.184;5.406;2022-08-21T00:49:38;6.40;;;4.40;;
16642;SDS011;8435;52.184;5.406;2022-08-21T00:52:10;3.90;;;3.60;;
16642;SDS011;8435;52.184;5.406;2022-08-21T00:58:35;4.20;;;3.30;;
16642;SDS011;8435;52.184;5.406;2022-08-21T01:01:15;3.27;;;2.90;;
16642;SDS011;8435;52.184;5.406;2022-08-21T01:03:48;3.83;;;2.97;;
16642;SDS011;8435;52.184;5.406;2022-08-21T01:06:36;3.80;;;3.50;;
16642;SDS011;8435;52.184;5.406;2022-08-21T01:09:21;4.77;;;3.73;;
16642;SDS011;8435;52.184;5.406;2022-08-21T01:11:51;3.97;;;3.30;;
16642;SDS011;8435;52.184;5.406;2022-08-21T01:14:29;4.13;;;3.73;;
16642;SDS011;8435;52.184;5.406;2022-08-21T01:17:09;4.30;;;3.67;;
16642;SDS011;8435;52.184;5.406;2022-08-21T01:19:48;3.87;;;3.10;;
16642;SDS011;8435;52.184;5.406;2022-08-21T01:22:35;5.60;;;3.37;;
16642;SDS011;8435;52.184;5.406;2022-08-21T01:25:25;4.37;;;3.37;;
16642;SDS011;8435;52.184;5.406;2022-08-21T01:28:02;3.73;;;3.40;;
16642;SDS011;8435;52.184;5.406;2022-08-21T01:30:35;3.43;;;3.00;;
16642;SDS011;8435;52.184;5.406;2022-08-21T01:33:04;3.77;;;2.93;;
16642;SDS011;8435;52.184;5.406;2022-08-21T01:35:45;4.57;;;3.90;;
16642;SDS011;8435;52.184;5.406;2022-08-21T01:38:22;4.60;;;3.60;;
16642;SDS011;8435;52.184;5.406;2022-08-21T01:40:56;3.93;;;3.23;;
16642;SDS011;8435;52.184;5.406;2022-08-21T01:43:49;6.27;;;3.57;;
16642;SDS011;8435;52.184;5.406;2022-08-21T01:46:30;5.90;;;3.37;;
16642;SDS011;8435;52.184;5.406;2022-08-21T01:49:07;4.00;;;3.17;;
16642;SDS011;8435;52.184;5.406;2022-08-21T01:51:43;3.70;;;3.30;;
16642;SDS011;8435;52.184;5.406;2022-08-21T01:54:28;5.27;;;3.77;;
16642;SDS011;8435;52.184;5.406;2022-08-21T01:57:15;5.20;;;3.80;;
16642;SDS011;8435;52.184;5.406;2022-08-21T02:00:12;4.13;;;3.23;;
16642;SDS011;8435;52.184;5.406;2022-08-21T02:05:57;3.33;;;3.03;;
16642;SDS011;8435;52.184;5.406;2022-08-21T02:08:54;3.67;;;3.37;;
16642;SDS011;8435;52.184;5.406;2022-08-21T02:14:32;3.53;;;3.03;;
16642;SDS011;8435;52.184;5.406;2022-08-21T02:17:09;3.97;;;3.57;;
16642;SDS011;8435;52.184;5.406;2022-08-21T02:19:55;4.23;;;3.23;;
16642;SDS011;8435;52.184;5.406;2022-08-21T02:22:37;3.70;;;3.40;;
16642;SDS011;8435;52.184;5.406;2022-08-21T02:25:24;3.70;;;3.37;;
16642;SDS011;8435;52.184;5.406;2022-08-21T02:28:02;4.90;;;3.87;;
16642;SDS011;8435;52.184;5.406;2022-08-21T02:30:51;3.97;;;3.60;;
16642;SDS011;8435;52.184;5.406;2022-08-21T02:33:54;4.90;;;3.30;;
16642;SDS011;8435;52.184;5.406;2022-08-21T02:36:25;4.67;;;3.57;;
16642;SDS011;8435;52.184;5.406;2022-08-21T02:39:03;5.03;;;3.43;;
16642;SDS011;8435;52.184;5.406;2022-08-21T02:41:46;4.03;;;3.27;;
16642;SDS011;8435;52.184;5.406;2022-08-21T02:44:20;4.23;;;3.40;;
16642;SDS011;8435;52.184;5.406;2022-08-21T02:47:10;4.27;;;3.37;;
16642;SDS011;8435;52.184;5.406;2022-08-21T02:53:20;5.30;;;3.87;;
16642;SDS011;8435;52.184;5.406;2022-08-21T02:55:56;6.17;;;4.03;;
16642;SDS011;8435;52.184;5.406;2022-08-21T03:10:40;6.00;;;5.43;;
16642;SDS011;8435;52.184;5.406;2022-08-21T03:16:23;8.47;;;7.67;;
16642;SDS011;8435;52.184;5.406;2022-08-21T03:19:37;5.03;;;4.53;;
16642;SDS011;8435;52.184;5.406;2022-08-21T03:43:37;4.70;;;4.20;;
16642;SDS011;8435;52.184;5.406;2022-08-21T03:53:11;5.80;;;4.50;;
16642;SDS011;8435;52.184;5.406;2022-08-21T03:59:29;4.37;;;3.93;;
16642;SDS011;8435;52.184;5.406;2022-08-21T04:02:33;4.67;;;3.77;;
16642;SDS011;8435;52.184;5.406;2022-08-21T04:05:31;5.63;;;3.90;;
16642;SDS011;8435;52.184;5.406;2022-08-21T04:08:36;5.80;;;3.97;;
16642;SDS011;8435;52.184;5.406;2022-08-21T04:21:22;5.63;;;4.10;;
16642;SDS011;8435;52.184;5.406;2022-08-21T04:28:06;4.97;;;3.87;;
16642;SDS011;8435;52.184;5.406;2022-08-21T04:30:35;5.37;;;4.13;;
16642;SDS011;8435;52.184;5.406;2022-08-21T04:33:29;6.00;;;4.27;;
16642;SDS011;8435;52.184;5.406;2022-08-21T04:36:17;5.83;;;4.33;;
16642;SDS011;8435;52.184;5.406;2022-08-21T04:39:50;5.63;;;4.10;;
16642;SDS011;8435;52.184;5.406;2022-08-21T04:42:25;4.83;;;4.33;;
16642;SDS011;8435;52.184;5.406;2022-08-21T04:45:07;5.23;;;4.73;;
16642;SDS011;8435;52.184;5.406;2022-08-21T04:51:29;5.77;;;4.70;;
16642;SDS011;8435;52.184;5.406;2022-08-21T04:54:02;6.53;;;4.53;;
16642;SDS011;8435;52.184;5.406;2022-08-21T04:56:40;4.70;;;4.30;;
16642;SDS011;8435;52.184;5.406;2022-08-21T04:59:12;6.20;;;4.80;;
16642;SDS011;8435;52.184;5.406;2022-08-21T05:02:01;5.93;;;5.17;;
16642;SDS011;8435;52.184;5.406;2022-08-21T05:04:50;5.43;;;4.60;;
16642;SDS011;8435;52.184;5.406;2022-08-21T05:07:24;5.33;;;4.83;;
16642;SDS011;8435;52.184;5.406;2022-08-21T05:09:54;5.83;;;5.20;;
16642;SDS011;8435;52.184;5.406;2022-08-21T05:13:05;6.97;;;5.80;;
16642;SDS011;8435;52.184;5.406;2022-08-21T05:19:19;7.70;;;6.47;;
16642;SDS011;8435;52.184;5.406;2022-08-21T05:25:09;6.23;;;5.50;;
16642;SDS011;8435;52.184;5.406;2022-08-21T05:27:49;6.27;;;5.67;;
16642;SDS011;8435;52.184;5.406;2022-08-21T05:31:07;7.10;;;5.50;;
16642;SDS011;8435;52.184;5.406;2022-08-21T05:34:05;5.53;;;4.67;;
16642;SDS011;8435;52.184;5.406;2022-08-21T05:36:52;6.30;;;4.90;;
16642;SDS011;8435;52.184;5.406;2022-08-21T05:39:43;5.27;;;4.77;;
16642;SDS011;8435;52.184;5.406;2022-08-21T05:42:30;4.80;;;4.30;;
16642;SDS011;8435;52.184;5.406;2022-08-21T05:45:20;9.43;;;5.03;;
16642;SDS011;8435;52.184;5.406;2022-08-21T05:48:21;6.90;;;4.50;;
16642;SDS011;8435;52.184;5.406;2022-08-21T05:51:06;6.43;;;4.90;;
16642;SDS011;8435;52.184;5.406;2022-08-21T05:53:38;5.57;;;4.90;;
16642;SDS011;8435;52.184;5.406;2022-08-21T05:56:17;5.50;;;4.97;;
16642;SDS011;8435;52.184;5.406;2022-08-21T05:59:09;7.60;;;4.30;;
16642;SDS011;8435;52.184;5.406;2022-08-21T06:01:42;6.07;;;4.70;;
16642;SDS011;8435;52.184;5.406;2022-08-21T06:04:17;5.90;;;4.40;;
16642;SDS011;8435;52.184;5.406;2022-08-21T06:10:08;5.30;;;4.07;;
16642;SDS011;8435;52.184;5.406;2022-08-21T06:12:44;4.70;;;3.90;;
16642;SDS011;8435;52.184;5.406;2022-08-21T06:16:00;7.65;;;3.92;;
16642;SDS011;8435;52.184;5.406;2022-08-21T06:19:02;6.60;;;4.10;;
16642;SDS011;8435;52.184;5.406;2022-08-21T06:21:56;5.63;;;3.85;;
16642;SDS011;8435;52.184;5.406;2022-08-21T06:24:56;6.25;;;3.80;;
16642;SDS011;8435;52.184;5.406;2022-08-21T06:27:37;7.03;;;3.72;;
16642;SDS011;8435;52.184;5.406;2022-08-21T06:30:17;7.30;;;4.05;;
16642;SDS011;8435;52.184;5.406;2022-08-21T06:32:46;5.82;;;3.90;;
16642;SDS011;8435;52.184;5.406;2022-08-21T06:35:20;6.07;;;4.25;;
16642;SDS011;8435;52.184;5.406;2022-08-21T06:37:51;5.40;;;4.10;;
16642;SDS011;8435;52.184;5.406;2022-08-21T06:40:44;5.15;;;3.55;;
16642;SDS011;8435;52.184;5.406;2022-08-21T06:43:13;6.25;;;3.40;;
16642;SDS011;8435;52.184;5.406;2022-08-21T06:45:52;4.55;;;3.58;;
16642;SDS011;8435;52.184;5.406;2022-08-21T06:48:24;6.63;;;3.83;;
16642;SDS011;8435;52.184;5.406;2022-08-21T06:53:54;7.03;;;3.78;;
16642;SDS011;8435;52.184;5.406;2022-08-21T06:56:28;6.90;;;3.78;;
16642;SDS011;8435;52.184;5.406;2022-08-21T06:59:03;7.88;;;4.57;;
16642;SDS011;8435;52.184;5.406;2022-08-21T07:07:24;6.63;;;4.03;;
16642;SDS011;8435;52.184;5.406;2022-08-21T07:10:25;7.97;;;3.90;;
16642;SDS011;8435;52.184;5.406;2022-08-21T07:13:31;5.00;;;3.65;;
16642;SDS011;8435;52.184;5.406;2022-08-21T07:16:14;5.25;;;4.05;;
16642;SDS011;8435;52.184;5.406;2022-08-21T07:18:48;6.78;;;4.13;;
16642;SDS011;8435;52.184;5.406;2022-08-21T07:21:45;9.13;;;3.95;;
16642;SDS011;8435;52.184;5.406;2022-08-21T07:24:16;6.95;;;3.72;;
16642;SDS011;8435;52.184;5.406;2022-08-21T07:26:48;7.72;;;3.50;;
16642;SDS011;8435;52.184;5.406;2022-08-21T07:29:24;6.25;;;3.28;;
16642;SDS011;8435;52.184;5.406;2022-08-21T07:31:59;6.75;;;3.88;;
16642;SDS011;8435;52.184;5.406;2022-08-21T07:34:49;7.45;;;3.40;;
16642;SDS011;8435;52.184;5.406;2022-08-21T07:37:47;8.10;;;3.60;;
16642;SDS011;8435;52.184;5.406;2022-08-21T07:40:28;4.50;;;2.85;;
16642;SDS011;8435;52.184;5.406;2022-08-21T07:43:16;6.20;;;3.08;;
16642;SDS011;8435;52.184;5.406;2022-08-21T07:45:52;5.90;;;3.00;;
16642;SDS011;8435;52.184;5.406;2022-08-21T07:48:30;5.53;;;3.35;;
16642;SDS011;8435;52.184;5.406;2022-08-21T07:51:29;6.38;;;3.20;;
16642;SDS011;8435;52.184;5.406;2022-08-21T07:54:10;8.07;;;3.17;;
16642;SDS011;8435;52.184;5.406;2022-08-21T08:00:38;6.13;;;2.75;;
16642;SDS011;8435;52.184;5.406;2022-08-21T08:06:35;5.00;;;2.90;;
16642;SDS011;8435;52.184;5.406;2022-08-21T08:10:13;4.38;;;2.75;;
16642;SDS011;8435;52.184;5.406;2022-08-21T08:13:10;4.00;;;2.50;;
16642;SDS011;8435;52.184;5.406;2022-08-21T08:16:12;3.00;;;2.20;;
16642;SDS011;8435;52.184;5.406;2022-08-21T08:18:47;5.25;;;2.75;;
16642;SDS011;8435;52.184;5.406;2022-08-21T08:21:42;5.82;;;2.80;;
16642;SDS011;8435;52.184;5.406;2022-08-21T08:24:24;5.35;;;2.67;;
16642;SDS011;8435;52.184;5.406;2022-08-21T08:26:55;4.93;;;2.97;;
16642;SDS011;8435;52.184;5.406;2022-08-21T08:29:26;4.22;;;2.38;;
16642;SDS011;8435;52.184;5.406;2022-08-21T08:31:58;5.50;;;2.60;;
16642;SDS011;8435;52.184;5.406;2022-08-21T08:34:40;5.25;;;2.92;;
16642;SDS011;8435;52.184;5.406;2022-08-21T08:37:20;4.95;;;2.45;;
16642;SDS011;8435;52.184;5.406;2022-08-21T08:40:21;3.83;;;2.15;;
16642;SDS011;8435;52.184;5.406;2022-08-21T08:43:03;7.40;;;3.00;;
16642;SDS011;8435;52.184;5.406;2022-08-21T08:45:42;5.03;;;2.80;;
16642;SDS011;8435;52.184;5.406;2022-08-21T08:48:32;4.40;;;2.33;;
16642;SDS011;8435;52.184;5.406;2022-08-21T08:51:18;4.63;;;2.15;;
16642;SDS011;8435;52.184;5.406;2022-08-21T08:54:13;4.75;;;2.45;;
16642;SDS011;8435;52.184;5.406;2022-08-21T08:56:49;4.68;;;2.30;;
16642;SDS011;8435;52.184;5.406;2022-08-21T08:59:18;4.20;;;2.28;;
16642;SDS011;8435;52.184;5.406;2022-08-21T09:01:54;5.22;;;2.30;;
16642;SDS011;8435;52.184;5.406;2022-08-21T09:04:29;4.13;;;2.30;;
16642;SDS011;8435;52.184;5.406;2022-08-21T09:07:07;5.00;;;2.70;;
16642;SDS011;8435;52.184;5.406;2022-08-21T09:09:46;4.63;;;2.38;;
16642;SDS011;8435;52.184;5.406;2022-08-21T09:12:28;6.35;;;2.78;;
16642;SDS011;8435;52.184;5.406;2022-08-21T09:15:17;3.85;;;2.70;;
16642;SDS011;8435;52.184;5.406;2022-08-21T09:20:47;5.53;;;2.88;;
16642;SDS011;8435;52.184;5.406;2022-08-21T09:23:31;5.50;;;3.22;;
16642;SDS011;8435;52.184;5.406;2022-08-21T09:26:14;5.32;;;2.42;;
16642;SDS011;8435;52.184;5.406;2022-08-21T09:28:48;4.50;;;2.53;;
16642;SDS011;8435;52.184;5.406;2022-08-21T09:31:29;5.55;;;2.55;;
16642;SDS011;8435;52.184;5.406;2022-08-21T09:34:05;5.20;;;2.30;;
16642;SDS011;8435;52.184;5.406;2022-08-21T09:36:38;4.18;;;2.30;;
16642;SDS011;8435;52.184;5.406;2022-08-21T09:39:21;4.00;;;2.17;;
16642;SDS011;8435;52.184;5.406;2022-08-21T09:41:55;3.47;;;2.40;;
16642;SDS011;8435;52.184;5.406;2022-08-21T09:44:32;4.78;;;2.30;;
16642;SDS011;8435;52.184;5.406;2022-08-21T09:47:06;4.30;;;2.22;;
16642;SDS011;8435;52.184;5.406;2022-08-21T09:49:37;4.05;;;2.05;;
16642;SDS011;8435;52.184;5.406;2022-08-21T09:52:10;4.93;;;2.33;;
16642;SDS011;8435;52.184;5.406;2022-08-21T09:54:46;3.40;;;2.13;;
16642;SDS011;8435;52.184;5.406;2022-08-21T09:57:26;5.38;;;2.20;;
16642;SDS011;8435;52.184;5.406;2022-08-21T10:00:10;4.93;;;2.67;;
16642;SDS011;8435;52.184;5.406;2022-08-21T10:02:51;4.13;;;2.15;;
16642;SDS011;8435;52.184;5.406;2022-08-21T10:05:37;3.03;;;2.03;;
16642;SDS011;8435;52.184;5.406;2022-08-21T10:08:16;2.97;;;1.80;;
16642;SDS011;8435;52.184;5.406;2022-08-21T10:10:49;3.25;;;2.00;;
16642;SDS011;8435;52.184;5.406;2022-08-21T10:13:45;3.55;;;1.88;;
16642;SDS011;8435;52.184;5.406;2022-08-21T10:16:25;3.42;;;1.80;;
16642;SDS011;8435;52.184;5.406;2022-08-21T10:19:19;4.90;;;2.53;;
16642;SDS011;8435;52.184;5.406;2022-08-21T10:22:10;3.88;;;2.08;;
16642;SDS011;8435;52.184;5.406;2022-08-21T10:25:21;2.55;;;1.88;;
16642;SDS011;8435;52.184;5.406;2022-08-21T10:27:59;3.42;;;2.15;;
16642;SDS011;8435;52.184;5.406;2022-08-21T10:30:34;4.47;;;2.25;;
16642;SDS011;8435;52.184;5.406;2022-08-21T10:33:14;5.55;;;2.22;;
16642;SDS011;8435;52.184;5.406;2022-08-21T10:35:54;4.68;;;2.10;;
16642;SDS011;8435;52.184;5.406;2022-08-21T10:38:37;3.90;;;2.00;;
16642;SDS011;8435;52.184;5.406;2022-08-21T10:41:39;4.25;;;1.90;;
16642;SDS011;8435;52.184;5.406;2022-08-21T10:44:17;4.43;;;2.08;;
16642;SDS011;8435;52.184;5.406;2022-08-21T10:47:06;3.55;;;2.10;;
16642;SDS011;8435;52.184;5.406;2022-08-21T10:49:42;3.67;;;2.00;;
16642;SDS011;8435;52.184;5.406;2022-08-21T10:52:31;2.85;;;2.00;;
16642;SDS011;8435;52.184;5.406;2022-08-21T10:55:14;3.33;;;1.90;;
16642;SDS011;8435;52.184;5.406;2022-08-21T10:57:44;3.40;;;1.95;;
16642;SDS011;8435;52.184;5.406;2022-08-21T11:00:33;5.65;;;2.30;;
16642;SDS011;8435;52.184;5.406;2022-08-21T11:03:24;2.90;;;1.63;;
16642;SDS011;8435;52.184;5.406;2022-08-21T11:05:57;5.10;;;2.03;;
16642;SDS011;8435;52.184;5.406;2022-08-21T11:08:31;5.47;;;2.35;;
16642;SDS011;8435;52.184;5.406;2022-08-21T11:11:08;5.80;;;2.20;;
16642;SDS011;8435;52.184;5.406;2022-08-21T11:13:39;3.00;;;1.65;;
16642;SDS011;8435;52.184;5.406;2022-08-21T11:16:12;3.22;;;1.95;;
16642;SDS011;8435;52.184;5.406;2022-08-21T11:18:45;3.35;;;2.00;;
16642;SDS011;8435;52.184;5.406;2022-08-21T11:21:29;3.33;;;2.08;;
16642;SDS011;8435;52.184;5.406;2022-08-21T11:24:10;2.03;;;1.67;;
16642;SDS011;8435;52.184;5.406;2022-08-21T11:26:49;3.38;;;1.98;;
16642;SDS011;8435;52.184;5.406;2022-08-21T11:29:24;2.15;;;1.80;;
16642;SDS011;8435;52.184;5.406;2022-08-21T11:32:00;5.07;;;2.17;;
16642;SDS011;8435;52.184;5.406;2022-08-21T11:34:40;3.08;;;2.00;;
16642;SDS011;8435;52.184;5.406;2022-08-21T11:37:23;2.30;;;1.67;;
16642;SDS011;8435;52.184;5.406;2022-08-21T11:40:04;3.47;;;1.50;;
16642;SDS011;8435;52.184;5.406;2022-08-21T11:42:38;4.38;;;1.92;;
16642;SDS011;8435;52.184;5.406;2022-08-21T11:45:18;4.50;;;2.08;;
16642;SDS011;8435;52.184;5.406;2022-08-21T11:48:04;3.70;;;2.05;;
16642;SDS011;8435;52.184;5.406;2022-08-21T11:50:38;4.18;;;1.88;;
16642;SDS011;8435;52.184;5.406;2022-08-21T11:53:18;3.60;;;2.55;;
16642;SDS011;8435;52.184;5.406;2022-08-21T11:56:02;3.33;;;2.10;;
16642;SDS011;8435;52.184;5.406;2022-08-21T11:58:37;5.45;;;2.50;;
16642;SDS011;8435;52.184;5.406;2022-08-21T12:01:09;5.50;;;2.58;;
16642;SDS011;8435;52.184;5.406;2022-08-21T12:03:51;3.35;;;2.10;;
16642;SDS011;8435;52.184;5.406;2022-08-21T12:06:28;5.70;;;2.72;;
16642;SDS011;8435;52.184;5.406;2022-08-21T12:09:28;3.67;;;2.30;;
16642;SDS011;8435;52.184;5.406;2022-08-21T12:12:04;4.38;;;2.03;;
16642;SDS011;8435;52.184;5.406;2022-08-21T12:14:39;3.63;;;2.20;;
16642;SDS011;8435;52.184;5.406;2022-08-21T12:17:08;3.85;;;2.60;;
16642;SDS011;8435;52.184;5.406;2022-08-21T12:19:44;5.32;;;2.35;;
16642;SDS011;8435;52.184;5.406;2022-08-21T12:22:12;2.58;;;2.10;;
16642;SDS011;8435;52.184;5.406;2022-08-21T12:24:41;3.85;;;2.50;;
16642;SDS011;8435;52.184;5.406;2022-08-21T12:27:18;3.00;;;2.20;;
16642;SDS011;8435;52.184;5.406;2022-08-21T12:29:52;5.53;;;2.60;;
16642;SDS011;8435;52.184;5.406;2022-08-21T12:32:25;3.25;;;2.08;;
16642;SDS011;8435;52.184;5.406;2022-08-21T12:34:54;3.17;;;1.95;;
16642;SDS011;8435;52.184;5.406;2022-08-21T12:37:28;4.13;;;2.58;;
16642;SDS011;8435;52.184;5.406;2022-08-21T12:40:04;2.78;;;2.15;;
16642;SDS011;8435;52.184;5.406;2022-08-21T12:42:41;3.22;;;2.20;;
16642;SDS011;8435;52.184;5.406;2022-08-21T12:45:16;4.07;;;2.00;;
16642;SDS011;8435;52.184;5.406;2022-08-21T12:47:47;2.63;;;2.33;;
16642;SDS011;8435;52.184;5.406;2022-08-21T12:50:18;4.40;;;2.30;;
16642;SDS011;8435;52.184;5.406;2022-08-21T12:52:48;4.47;;;2.50;;
16642;SDS011;8435;52.184;5.406;2022-08-21T12:55:26;4.13;;;2.10;;
16642;SDS011;8435;52.184;5.406;2022-08-21T12:57:54;2.88;;;2.17;;
16642;SDS011;8435;52.184;5.406;2022-08-21T13:00:23;2.00;;;1.88;;
16642;SDS011;8435;52.184;5.406;2022-08-21T13:02:51;1.80;;;1.70;;
16642;SDS011;8435;52.184;5.406;2022-08-21T13:05:23;2.33;;;2.00;;
16642;SDS011;8435;52.184;5.406;2022-08-21T13:07:55;3.28;;;1.98;;
16642;SDS011;8435;52.184;5.406;2022-08-21T13:10:23;3.22;;;2.22;;
16642;SDS011;8435;52.184;5.406;2022-08-21T13:12:53;6.53;;;2.30;;
16642;SDS011;8435;52.184;5.406;2022-08-21T13:15:24;2.80;;;2.28;;
16642;SDS011;8435;52.184;5.406;2022-08-21T13:17:53;4.50;;;1.95;;
16642;SDS011;8435;52.184;5.406;2022-08-21T13:20:24;4.63;;;2.10;;
16642;SDS011;8435;52.184;5.406;2022-08-21T13:22:53;3.20;;;2.08;;
16642;SDS011;8435;52.184;5.406;2022-08-21T13:25:21;3.13;;;2.22;;
16642;SDS011;8435;52.184;5.406;2022-08-21T13:27:57;3.72;;;2.13;;
16642;SDS011;8435;52.184;5.406;2022-08-21T13:30:27;3.28;;;2.10;;
16642;SDS011;8435;52.184;5.406;2022-08-21T13:32:56;3.45;;;2.08;;
16642;SDS011;8435;52.184;5.406;2022-08-21T13:35:26;4.10;;;2.15;;
16642;SDS011;8435;52.184;5.406;2022-08-21T13:37:56;2.72;;;1.67;;
16642;SDS011;8435;52.184;5.406;2022-08-21T13:40:25;4.05;;;2.08;;
16642;SDS011;8435;52.184;5.406;2022-08-21T13:42:55;3.47;;;1.90;;
16642;SDS011;8435;52.184;5.406;2022-08-21T13:45:23;4.75;;;2.17;;
16642;SDS011;8435;52.184;5.406;2022-08-21T13:47:52;5.88;;;2.00;;
16642;SDS011;8435;52.184;5.406;2022-08-21T13:50:21;4.03;;;3.30;;
16642;SDS011;8435;52.184;5.406;2022-08-21T13:52:54;3.85;;;2.47;;
16642;SDS011;8435;52.184;5.406;2022-08-21T13:55:34;4.72;;;3.58;;
16642;SDS011;8435;52.184;5.406;2022-08-21T13:58:04;4.28;;;2.40;;
16642;SDS011;8435;52.184;5.406;2022-08-21T14:00:32;4.68;;;3.95;;
16642;SDS011;8435;52.184;5.406;2022-08-21T14:03:04;6.50;;;3.25;;
16642;SDS011;8435;52.184;5.406;2022-08-21T14:05:36;5.57;;;2.58;;
16642;SDS011;8435;52.184;5.406;2022-08-21T14:08:10;3.88;;;1.88;;
16642;SDS011;8435;52.184;5.406;2022-08-21T14:10:55;3.05;;;1.65;;
16642;SDS011;8435;52.184;5.406;2022-08-21T14:13:30;4.40;;;2.40;;
16642;SDS011;8435;52.184;5.406;2022-08-21T14:16:02;3.10;;;2.08;;
16642;SDS011;8435;52.184;5.406;2022-08-21T14:18:44;3.33;;;1.95;;
16642;SDS011;8435;52.184;5.406;2022-08-21T14:21:12;4.13;;;2.10;;
16642;SDS011;8435;52.184;5.406;2022-08-21T14:23:42;3.42;;;1.75;;
16642;SDS011;8435;52.184;5.406;2022-08-21T14:26:09;3.00;;;2.10;;
16642;SDS011;8435;52.184;5.406;2022-08-21T14:28:38;3.97;;;1.83;;
16642;SDS011;8435;52.184;5.406;2022-08-21T14:31:14;2.22;;;1.70;;
16642;SDS011;8435;52.184;5.406;2022-08-21T14:33:45;3.15;;;2.00;;
16642;SDS011;8435;52.184;5.406;2022-08-21T14:36:15;3.05;;;1.75;;
16642;SDS011;8435;52.184;5.406;2022-08-21T14:38:42;3.00;;;1.80;;
16642;SDS011;8435;52.184;5.406;2022-08-21T14:41:15;3.17;;;1.85;;
16642;SDS011;8435;52.184;5.406;2022-08-21T14:43:45;2.65;;;1.95;;
16642;SDS011;8435;52.184;5.406;2022-08-21T14:46:19;4.45;;;2.22;;
16642;SDS011;8435;52.184;5.406;2022-08-21T14:49:28;3.97;;;2.10;;
16642;SDS011;8435;52.184;5.406;2022-08-21T14:51:59;3.10;;;1.60;;
16642;SDS011;8435;52.184;5.406;2022-08-21T14:57:18;2.95;;;2.33;;
16642;SDS011;8435;52.184;5.406;2022-08-21T14:59:45;4.53;;;2.28;;
16642;SDS011;8435;52.184;5.406;2022-08-21T15:02:24;3.20;;;2.00;;
16642;SDS011;8435;52.184;5.406;2022-08-21T15:04:53;2.72;;;1.70;;
16642;SDS011;8435;52.184;5.406;2022-08-21T15:07:31;3.08;;;1.95;;
16642;SDS011;8435;52.184;5.406;2022-08-21T15:10:02;1.73;;;1.58;;
16642;SDS011;8435;52.184;5.406;2022-08-21T15:12:33;5.10;;;2.20;;
16642;SDS011;8435;52.184;5.406;2022-08-21T15:15:01;3.08;;;1.85;;
16642;SDS011;8435;52.184;5.406;2022-08-21T15:17:28;4.05;;;2.40;;
16642;SDS011;8435;52.184;5.406;2022-08-21T15:20:00;3.40;;;2.20;;
16642;SDS011;8435;52.184;5.406;2022-08-21T15:22:28;3.08;;;2.17;;
16642;SDS011;8435;52.184;5.406;2022-08-21T15:25:04;3.33;;;1.90;;
16642;SDS011;8435;52.184;5.406;2022-08-21T15:27:34;2.88;;;1.92;;
16642;SDS011;8435;52.184;5.406;2022-08-21T15:30:02;5.45;;;2.40;;
16642;SDS011;8435;52.184;5.406;2022-08-21T15:32:30;3.92;;;1.83;;
16642;SDS011;8435;52.184;5.406;2022-08-21T15:34:57;2.50;;;1.90;;
16642;SDS011;8435;52.184;5.406;2022-08-21T15:37:25;4.20;;;2.78;;
16642;SDS011;8435;52.184;5.406;2022-08-21T15:39:56;6.18;;;2.80;;
16642;SDS011;8435;52.184;5.406;2022-08-21T15:42:23;2.58;;;2.03;;
16642;SDS011;8435;52.184;5.406;2022-08-21T15:44:52;4.03;;;2.47;;
16642;SDS011;8435;52.184;5.406;2022-08-21T15:47:21;3.72;;;2.78;;
16642;SDS011;8435;52.184;5.406;2022-08-21T15:49:51;6.68;;;4.25;;
16642;SDS011;8435;52.184;5.406;2022-08-21T15:52:19;4.47;;;3.67;;
16642;SDS011;8435;52.184;5.406;2022-08-21T15:54:54;4.75;;;4.15;;
16642;SDS011;8435;52.184;5.406;2022-08-21T15:57:24;6.10;;;4.72;;
16642;SDS011;8435;52.184;5.406;2022-08-21T15:59:53;4.82;;;3.00;;
16642;SDS011;8435;52.184;5.406;2022-08-21T16:02:24;4.75;;;2.50;;
16642;SDS011;8435;52.184;5.406;2022-08-21T16:05:00;3.55;;;2.63;;
16642;SDS011;8435;52.184;5.406;2022-08-21T16:07:34;3.45;;;2.20;;
16642;SDS011;8435;52.184;5.406;2022-08-21T16:10:21;3.88;;;2.00;;
16642;SDS011;8435;52.184;5.406;2022-08-21T16:15:55;5.88;;;2.75;;
16642;SDS011;8435;52.184;5.406;2022-08-21T16:18:36;5.40;;;2.58;;
16642;SDS011;8435;52.184;5.406;2022-08-21T16:21:09;5.63;;;2.35;;
16642;SDS011;8435;52.184;5.406;2022-08-21T16:24:00;4.63;;;2.03;;
16642;SDS011;8435;52.184;5.406;2022-08-21T16:29:45;5.50;;;4.22;;
16642;SDS011;8435;52.184;5.406;2022-08-21T16:32:41;5.90;;;4.72;;
16642;SDS011;8435;52.184;5.406;2022-08-21T16:35:20;5.25;;;4.40;;
16642;SDS011;8435;52.184;5.406;2022-08-21T16:41:12;2.95;;;2.22;;
16642;SDS011;8435;52.184;5.406;2022-08-21T16:46:58;3.13;;;1.77;;
16642;SDS011;8435;52.184;5.406;2022-08-21T16:49:39;3.72;;;2.85;;
16642;SDS011;8435;52.184;5.406;2022-08-21T16:52:28;2.35;;;2.15;;
16642;SDS011;8435;52.184;5.406;2022-08-21T16:54:58;2.75;;;1.70;;
16642;SDS011;8435;52.184;5.406;2022-08-21T17:00:32;2.88;;;1.42;;
16642;SDS011;8435;52.184;5.406;2022-08-21T17:06:42;4.63;;;1.50;;
16642;SDS011;8435;52.184;5.406;2022-08-21T17:13:11;4.53;;;1.88;;
16642;SDS011;8435;52.184;5.406;2022-08-21T17:16:14;3.85;;;1.52;;
16642;SDS011;8435;52.184;5.406;2022-08-21T17:22:17;3.00;;;1.83;;
16642;SDS011;8435;52.184;5.406;2022-08-21T17:25:15;2.13;;;1.73;;
16642;SDS011;8435;52.184;5.406;2022-08-21T17:38:25;4.43;;;1.80;;
16642;SDS011;8435;52.184;5.406;2022-08-21T18:01:07;2.20;;;1.60;;
16642;SDS011;8435;52.184;5.406;2022-08-21T18:04:02;2.72;;;2.00;;
16642;SDS011;8435;52.184;5.406;2022-08-21T18:17:32;3.85;;;1.80;;
16642;SDS011;8435;52.184;5.406;2022-08-21T18:20:07;5.47;;;1.77;;
16642;SDS011;8435;52.184;5.406;2022-08-21T18:49:33;4.10;;;2.20;;
16642;SDS011;8435;52.184;5.406;2022-08-21T18:52:41;4.22;;;2.10;;
16642;SDS011;8435;52.184;5.406;2022-08-21T19:20:22;2.15;;;1.95;;
16642;SDS011;8435;52.184;5.406;2022-08-21T19:52:41;3.30;;;1.80;;
16642;SDS011;8435;52.184;5.406;2022-08-21T19:55:44;2.60;;;1.70;;
16642;SDS011;8435;52.184;5.406;2022-08-21T19:59:07;3.33;;;2.03;;
16642;SDS011;8435;52.184;5.406;2022-08-21T20:02:14;3.25;;;1.65;;
16642;SDS011;8435;52.184;5.406;2022-08-21T20:19:26;2.75;;;1.70;;
16642;SDS011;8435;52.184;5.406;2022-08-21T20:25:41;4.32;;;2.00;;
16642;SDS011;8435;52.184;5.406;2022-08-21T20:39:06;2.78;;;2.10;;
16642;SDS011;8435;52.184;5.406;2022-08-21T20:42:34;3.17;;;1.85;;
16642;SDS011;8435;52.184;5.406;2022-08-21T20:49:34;3.13;;;1.73;;
16642;SDS011;8435;52.184;5.406;2022-08-21T20:59:55;4.20;;;1.65;;
16642;SDS011;8435;52.184;5.406;2022-08-21T21:06:14;3.03;;;1.88;;
16642;SDS011;8435;52.184;5.406;2022-08-21T21:47:06;3.15;;;2.60;;
16642;SDS011;8435;52.184;5.406;2022-08-21T21:50:03;4.75;;;2.95;;
16642;SDS011;8435;52.184;5.406;2022-08-21T21:52:48;4.55;;;2.45;;
16642;SDS011;8435;52.184;5.406;2022-08-21T21:55:28;3.15;;;2.55;;
16642;SDS011;8435;52.184;5.406;2022-08-21T21:58:08;3.80;;;2.78;;
16642;SDS011;8435;52.184;5.406;2022-08-21T22:00:53;3.80;;;2.22;;
16642;SDS011;8435;52.184;5.406;2022-08-21T22:03:41;4.63;;;2.60;;
16642;SDS011;8435;52.184;5.406;2022-08-21T22:06:16;4.35;;;2.72;;
16642;SDS011;8435;52.184;5.406;2022-08-21T22:08:56;5.85;;;2.97;;
16642;SDS011;8435;52.184;5.406;2022-08-21T22:11:32;3.42;;;2.47;;
16642;SDS011;8435;52.184;5.406;2022-08-21T22:14:14;3.72;;;2.50;;
16642;SDS011;8435;52.184;5.406;2022-08-21T22:16:43;6.78;;;2.92;;
16642;SDS011;8435;52.184;5.406;2022-08-21T22:19:14;2.75;;;2.20;;